Montrose Regional Airport
KMTJ : now visible

Airfield :











YOU CAN JOIN US ON...

 
LOGIN :

Register | Disclaimer

   EN    FR    IT 

 









Legend :    VFR   Marginal VFR   IFR   Intensive IFR   Very Intensive IFR
Visi :
Ceiling :
>= 8 km
>= 3000ft
5 to 8 km
1000 to 3000 ft
1500m to 5 km
500 to 1000 ft
800 to 1500m
200 to 500 ft
< 800m
< 200 ft
Symbols :   Thunderstorms  Fog  Heavy snow  Heavy precipitations  Wind > 20 kt






- Airport Elevation : 5759 ft


KMTJ - Montrose Regional

CURRENT METAR :
  • 252253Z AUTO VRB05KT 10SM CLR 21/M06 A3007 RMK AO2 SLP130 T02111061

EXPIRED METARs :
  • 252153Z AUTO VRB04KT 10SM CLR 20/M05 A3007 RMK AO2 SLP133 T02001050
  • 252053Z AUTO 36007G17KT 10SM CLR 19/M06 A3009 RMK AO2 SLP140 T01941056 58013

TAF KMTJ
Valid from the 26 at 00:00 until the 27 at 00:00 UTC


252320Z 2600/2624 33010G20KT P6SM SKC
FM260200 16008KT P6SM SKC
FM261900 33010KT P6SM FEW200
KZDV FIR / North America



MET'MAP, your aeronautical weather chart ! - Copyright ORBIFLY December 2007 - Disclaimer

ORBIFLY MET'MAP TEAM :

Programming & Development : Alexandra Zaïnal
Concept & original design : Baudouin d'Aumeries
Assistance for programming : Marc-Olivier Méhu
Technical & hardware support : Manuel Goepfert

Contact : metmap@orbifly.com




SOURCES & CREDITS :

   NOAA       Earth
Advisory